Time;durP1;ratioP1;P1;durP2;ratioP2;P2;SDS_P1;SDS_P2;PMS_P1;PMS_P2;Temp;Humidity;BMP_temperature;BMP_pressure;BME280_temperature;BME280_humidity;BME280_pressure;Samples;Min_cycle;Max_cycle;Signal;HPM_P1;HPM_P2
2022/11/05 04:01:38;;;;;;;0.60;0.50;;;10.60;88.40;;;;;;5629929;23;20502;-79
2022/11/05 04:04:05;;;;;;;0.60;0.60;;;10.70;88.10;;;;;;5054627;28;20454;-78
2022/11/05 04:14:44;;;;;;;0.60;0.60;;;10.70;87.70;;;;;;5055400;28;20398;-79
2022/11/05 04:17:11;;;;;;;0.60;0.60;;;10.80;87.60;;;;;;5053873;28;20483;-79
2022/11/05 04:25:10;;;;;;;0.60;0.60;;;11.00;87.00;;;;;;5054610;28;20527;-79
2022/11/05 04:27:36;;;;;;;0.60;0.60;;;11.10;87.10;;;;;;5053999;28;20457;-79
2022/11/05 04:30:19;;;;;;;0.60;0.60;;;11.20;86.90;;;;;;5054186;28;20458;-79
2022/11/05 04:33:02;;;;;;;0.60;0.60;;;11.20;86.50;;;;;;5053746;28;20863;-79
2022/11/05 04:35:30;;;;;;;0.60;0.60;;;11.00;86.90;;;;;;5053639;28;20437;-79
2022/11/05 04:37:57;;;;;;;0.60;0.50;;;11.00;87.00;;;;;;5053854;28;20521;-79
2022/11/05 04:40:24;;;;;;;0.60;0.60;;;10.90;87.10;;;;;;5053874;28;20447;-79
2022/11/05 04:42:53;;;;;;;0.60;0.60;;;11.00;87.30;;;;;;5054188;28;20451;-79
2022/11/05 04:45:19;;;;;;;0.60;0.50;;;11.00;87.10;;;;;;5053485;28;20810;-79
2022/11/05 04:47:46;;;;;;;0.70;0.70;;;11.10;86.90;;;;;;5053810;28;20443;-79
2022/11/05 04:50:14;;;;;;;0.60;0.60;;;11.10;86.60;;;;;;5054142;28;20459;-79
2022/11/05 04:52:41;;;;;;;0.57;0.50;;;11.20;86.30;;;;;;5053976;28;20466;-78
2022/11/05 04:55:08;;;;;;;0.70;0.70;;;11.20;86.00;;;;;;5054432;28;20450;-79
2022/11/05 04:57:35;;;;;;;0.60;0.57;;;11.10;86.30;;;;;;5054393;28;20509;-79
2022/11/05 05:00:02;;;;;;;0.57;0.50;;;11.20;86.10;;;;;;5054291;28;20473;-79
2022/11/05 05:02:29;;;;;;;0.60;0.57;;;11.20;85.90;;;;;;5053282;28;20481;-79
2022/11/05 05:04:56;;;;;;;0.60;0.53;;;11.20;86.10;;;;;;5053849;28;20458;-79
2022/11/05 05:07:24;;;;;;;0.70;0.70;;;11.30;85.80;;;;;;5053681;28;20442;-79
2022/11/05 05:09:51;;;;;;;0.60;0.50;;;11.30;85.80;;;;;;5053497;28;20493;-78
2022/11/05 05:12:18;;;;;;;0.60;0.50;;;11.30;85.70;;;;;;5053340;28;20469;-79
2022/11/05 05:14:47;;;;;;;0.60;0.50;;;11.20;85.90;;;;;;5053332;28;20451;-78
2022/11/05 05:17:14;;;;;;;0.70;0.53;;;11.20;86.00;;;;;;5052923;28;20934;-79
2022/11/05 05:22:27;;;;;;;0.60;0.50;;;10.90;86.70;;;;;;5053004;28;20449;-79
2022/11/05 05:24:55;;;;;;;0.60;0.60;;;11.00;86.60;;;;;;5053161;28;20442;-78
2022/11/05 05:27:22;;;;;;;0.60;0.60;;;11.00;86.60;;;;;;5053249;28;20485;-79
2022/11/05 05:29:49;;;;;;;0.60;0.60;;;11.00;86.70;;;;;;5054259;28;20520;-79
2022/11/05 05:32:15;;;;;;;0.57;0.50;;;11.00;86.70;;;;;;5057864;28;20466;-79
2022/11/05 05:34:42;;;;;;;0.60;0.60;;;11.10;86.50;;;;;;5057625;28;20450;-79
2022/11/05 05:37:09;;;;;;;0.60;0.60;;;11.10;86.40;;;;;;5057693;28;20936;-79
2022/11/05 05:39:37;;;;;;;0.60;0.50;;;11.10;86.10;;;;;;5057953;28;20453;-79
2022/11/05 05:42:04;;;;;;;0.50;0.50;;;11.20;86.00;;;;;;5063449;28;20463;-79
2022/11/05 05:44:30;;;;;;;0.60;0.50;;;11.10;85.70;;;;;;5059465;28;20508;-79
2022/11/05 05:46:57;;;;;;;0.60;0.50;;;11.10;85.90;;;;;;5058086;28;20443;-78
2022/11/05 05:49:24;;;;;;;1.00;0.50;;;11.20;86.00;;;;;;5060801;28;20447;-79
2022/11/05 05:51:50;;;;;;;0.70;0.50;;;11.20;85.80;;;;;;5060133;28;20477;-79
2022/11/05 05:54:17;;;;;;;0.60;0.60;;;11.20;85.90;;;;;;5056808;28;20439;-79
2022/11/05 05:56:45;;;;;;;0.60;0.60;;;11.10;86.00;;;;;;5056226;28;21015;-79
2022/11/05 05:59:12;;;;;;;0.63;0.63;;;11.20;86.00;;;;;;5057463;28;20937;-78
2022/11/05 06:01:39;;;;;;;0.60;0.60;;;11.20;85.70;;;;;;5060161;28;20553;-78
2022/11/05 06:04:06;;;;;;;0.60;0.53;;;11.20;85.70;;;;;;5058000;28;20446;-79
2022/11/05 06:06:32;;;;;;;1.63;0.60;;;11.20;86.00;;;;;;5056531;28;20447;-79
2022/11/05 06:08:59;;;;;;;0.70;0.70;;;11.20;86.10;;;;;;5056924;28;20450;-79
2022/11/05 06:11:26;;;;;;;0.50;0.50;;;11.20;86.00;;;;;;5055941;28;20847;-79
2022/11/05 06:13:54;;;;;;;0.60;0.60;;;11.20;86.00;;;;;;5056051;28;20548;-79
2022/11/05 06:16:21;;;;;;;0.60;0.50;;;11.20;86.10;;;;;;5057178;28;20478;-79
2022/11/05 06:18:48;;;;;;;0.73;0.60;;;11.20;86.20;;;;;;5056080;28;20442;-79
2022/11/05 06:21:17;;;;;;;0.60;0.60;;;11.10;86.00;;;;;;5055629;28;20469;-79
2022/11/05 06:23:47;;;;;;;0.63;0.63;;;11.10;86.40;;;;;;5055968;28;20458;-78
2022/11/05 06:26:15;;;;;;;0.60;0.60;;;11.10;86.50;;;;;;5055643;28;20454;-79
2022/11/05 06:28:42;;;;;;;1.27;0.60;;;10.90;87.00;;;;;;5055613;28;20442;-79
2022/11/05 06:31:10;;;;;;;0.60;0.60;;;11.00;86.90;;;;;;5055745;28;20471;-79
2022/11/05 06:33:38;;;;;;;0.63;0.63;;;11.10;86.80;;;;;;5055934;28;20803;-77
2022/11/05 06:36:06;;;;;;;0.60;0.60;;;11.20;86.80;;;;;;5055989;28;20808;-79
2022/11/05 06:38:34;;;;;;;0.70;0.70;;;11.30;86.50;;;;;;5062334;28;20454;-79
2022/11/05 06:41:01;;;;;;;0.70;0.70;;;11.30;86.30;;;;;;5061840;28;20470;-78
2022/11/05 06:43:28;;;;;;;0.70;0.70;;;11.40;86.20;;;;;;5055994;28;20457;-78
2022/11/05 06:45:56;;;;;;;0.73;0.73;;;11.40;86.20;;;;;;5055764;28;20455;-78
2022/11/05 06:48:24;;;;;;;0.70;0.70;;;11.40;85.90;;;;;;5055866;28;20449;-79
2022/11/05 06:50:51;;;;;;;1.00;1.00;;;11.50;86.00;;;;;;5055790;28;21009;-78
2022/11/05 06:53:18;;;;;;;1.00;1.00;;;11.40;86.00;;;;;;5057596;28;20443;-78
2022/11/05 06:55:46;;;;;;;1.00;1.00;;;11.40;86.20;;;;;;5059682;28;20446;-80
2022/11/05 06:58:14;;;;;;;1.00;1.00;;;11.40;86.20;;;;;;5060322;28;20478;-80
2022/11/05 07:00:40;;;;;;;1.30;1.30;;;11.40;86.10;;;;;;5061161;28;20450;-80
2022/11/05 07:03:09;;;;;;;1.20;1.20;;;11.40;85.90;;;;;;5062088;28;20446;-80
2022/11/05 07:05:39;;;;;;;1.00;1.00;;;11.40;86.00;;;;;;5061860;28;20450;-80
2022/11/05 07:08:06;;;;;;;1.20;1.20;;;11.50;85.80;;;;;;5060896;28;20450;-80
2022/11/05 07:10:33;;;;;;;1.00;1.00;;;11.50;85.80;;;;;;5060851;28;20458;-80
2022/11/05 07:13:00;;;;;;;1.10;1.10;;;11.50;85.50;;;;;;5060794;28;20459;-80
2022/11/05 07:15:27;;;;;;;1.30;1.30;;;11.40;85.20;;;;;;5060430;28;20810;-80
2022/11/05 07:17:58;;;;;;;1.10;1.10;;;11.40;85.40;;;;;;5060904;28;20485;-80
2022/11/05 07:20:25;;;;;;;1.00;1.00;;;11.50;85.30;;;;;;5059850;28;20492;-80
2022/11/05 07:23:00;;;;;;;1.10;1.10;;;11.50;85.20;;;;;;5061201;28;20442;-80
2022/11/05 07:25:27;;;;;;;1.10;1.10;;;11.40;85.30;;;;;;5061557;28;20480;-80
2022/11/05 07:27:53;;;;;;;1.00;1.00;;;11.40;85.70;;;;;;5060599;28;20442;-80
2022/11/05 07:30:20;;;;;;;0.93;0.93;;;11.40;85.50;;;;;;5059969;28;20451;-80
2022/11/05 07:32:47;;;;;;;1.10;1.10;;;11.50;85.50;;;;;;5059496;28;20470;-80
2022/11/05 07:35:14;;;;;;;1.43;1.27;;;11.50;85.40;;;;;;5059323;28;20449;-80
2022/11/05 07:37:44;;;;;;;1.10;1.10;;;11.40;85.60;;;;;;5059644;28;20482;-80
2022/11/05 07:40:14;;;;;;;1.00;1.00;;;11.40;86.00;;;;;;5059887;28;20461;-80
2022/11/05 07:42:42;;;;;;;0.97;0.97;;;11.30;86.10;;;;;;5059420;28;20469;-79
2022/11/05 07:45:10;;;;;;;1.20;1.20;;;11.30;86.30;;;;;;5059318;28;20438;-80
2022/11/05 07:47:37;;;;;;;1.27;1.27;;;11.30;86.00;;;;;;5059408;28;20443;-80
2022/11/05 07:50:06;;;;;;;1.20;1.20;;;11.40;86.00;;;;;;5059884;28;20442;-80
2022/11/05 07:52:33;;;;;;;1.00;1.00;;;11.40;85.80;;;;;;5057433;28;20970;-80
2022/11/05 07:55:00;;;;;;;1.30;1.30;;;11.40;85.70;;;;;;5058302;28;20447;-79
2022/11/05 07:57:28;;;;;;;1.67;1.10;;;11.40;85.60;;;;;;5059359;28;20826;-82
2022/11/05 07:59:55;;;;;;;1.10;1.10;;;11.50;85.50;;;;;;5058799;28;20450;-82
2022/11/05 08:02:21;;;;;;;1.00;1.00;;;11.50;85.40;;;;;;5059253;28;20485;-82
2022/11/05 08:04:48;;;;;;;1.00;1.00;;;11.50;85.20;;;;;;5058130;28;20450;-78
2022/11/05 08:07:15;;;;;;;1.13;1.13;;;11.60;85.20;;;;;;5054884;28;20446;-79
2022/11/05 08:09:41;;;;;;;1.17;1.17;;;11.60;85.10;;;;;;5056033;28;20446;-79
2022/11/05 08:12:09;;;;;;;1.20;1.20;;;11.60;85.40;;;;;;5054361;28;20474;-75
2022/11/05 08:14:37;;;;;;;1.07;1.07;;;11.60;85.30;;;;;;5053921;28;20945;-77
2022/11/05 08:17:04;;;;;;;0.80;0.80;;;11.70;85.20;;;;;;5054152;28;20486;-77
2022/11/05 08:19:30;;;;;;;1.00;1.00;;;11.60;84.90;;;;;;5053648;28;20957;-76
2022/11/05 08:21:57;;;;;;;0.80;0.80;;;11.50;85.30;;;;;;5054235;28;20463;-77
2022/11/05 08:24:24;;;;;;;0.90;0.90;;;11.40;84.90;;;;;;5054138;28;20446;-73
2022/11/05 08:26:50;;;;;;;0.80;0.80;;;11.40;85.30;;;;;;5054879;28;20455;-73
2022/11/05 08:29:17;;;;;;;0.90;0.90;;;11.30;85.30;;;;;;5053880;28;20474;-73
2022/11/05 08:31:45;;;;;;;0.80;0.80;;;11.30;85.70;;;;;;5053872;28;20459;-75
2022/11/05 08:34:12;;;;;;;0.80;0.80;;;11.40;85.80;;;;;;5053638;28;20451;-74
2022/11/05 08:36:40;;;;;;;0.90;0.90;;;11.30;85.80;;;;;;5053406;28;20871;-74
2022/11/05 08:39:08;;;;;;;0.70;0.70;;;11.30;85.80;;;;;;5053597;28;20451;-74
2022/11/05 08:41:35;;;;;;;0.80;0.70;;;11.20;85.80;;;;;;5053730;28;20479;-74
2022/11/05 08:44:01;;;;;;;0.70;0.70;;;11.10;85.40;;;;;;5053229;28;20961;-74
2022/11/05 08:46:28;;;;;;;0.80;0.80;;;11.10;85.50;;;;;;5053486;28;20450;-75
2022/11/05 08:48:56;;;;;;;0.73;0.73;;;11.20;85.00;;;;;;5053225;28;20946;-76
2022/11/05 08:51:23;;;;;;;0.70;0.70;;;11.10;84.70;;;;;;5053180;28;20474;-77
2022/11/05 08:53:50;;;;;;;0.70;0.70;;;11.10;86.60;;;;;;5054330;28;20438;-74
2022/11/05 08:56:17;;;;;;;0.80;0.80;;;11.00;86.50;;;;;;5054459;28;20478;-76
2022/11/05 08:58:43;;;;;;;0.83;0.83;;;11.10;86.50;;;;;;5053162;28;21020;-74
2022/11/05 09:01:10;;;;;;;0.60;0.60;;;11.10;85.60;;;;;;5053063;28;20553;-74
2022/11/05 09:03:37;;;;;;;0.60;0.60;;;11.20;85.70;;;;;;5053413;28;20831;-71
2022/11/05 09:06:05;;;;;;;0.63;0.63;;;11.30;85.10;;;;;;5055965;28;20447;-72
2022/11/05 09:08:32;;;;;;;1.10;0.70;;;11.40;84.90;;;;;;5057012;28;20445;-76
2022/11/05 09:10:59;;;;;;;0.80;0.80;;;11.50;84.40;;;;;;5057226;28;20493;-76
2022/11/05 09:13:26;;;;;;;0.70;0.70;;;11.40;84.20;;;;;;5057285;28;20446;-76
2022/11/05 09:15:53;;;;;;;0.80;0.80;;;11.50;84.50;;;;;;5057561;28;20478;-75
2022/11/05 09:18:20;;;;;;;0.60;0.60;;;11.50;84.40;;;;;;5057070;28;20501;-74
2022/11/05 09:20:47;;;;;;;0.70;0.60;;;11.60;83.90;;;;;;5056979;28;20545;-75
2022/11/05 09:23:15;;;;;;;0.73;0.70;;;11.60;83.50;;;;;;5057392;28;20451;-76
2022/11/05 09:25:43;;;;;;;0.60;0.60;;;11.60;84.10;;;;;;5056699;28;20442;-76
2022/11/05 09:28:11;;;;;;;0.63;0.63;;;11.70;84.00;;;;;;5056629;28;20453;-77
2022/11/05 09:30:41;;;;;;;1.23;0.73;;;11.60;83.50;;;;;;5056815;28;20446;-77
2022/11/05 09:33:07;;;;;;;0.80;0.80;;;11.60;83.60;;;;;;5056561;28;20507;-77
2022/11/05 09:35:34;;;;;;;0.70;0.70;;;11.70;83.30;;;;;;5056854;28;20450;-77
2022/11/05 09:38:01;;;;;;;0.70;0.70;;;11.90;83.70;;;;;;5056867;28;20478;-77
2022/11/05 09:40:34;;;;;;;0.60;0.60;;;12.00;83.30;;;;;;5056745;28;20447;-77
2022/11/05 09:43:02;;;;;;;0.60;0.60;;;11.90;82.10;;;;;;5056943;28;20439;-77
2022/11/05 09:45:33;;;;;;;0.60;0.60;;;12.00;82.80;;;;;;5056792;28;20465;-77
2022/11/05 09:48:05;;;;;;;0.60;0.60;;;12.00;82.20;;;;;;5056702;28;20431;-77
2022/11/05 09:50:34;;;;;;;0.60;0.60;;;12.00;83.80;;;;;;5056712;28;20435;-77
2022/11/05 09:53:01;;;;;;;0.70;0.60;;;11.90;82.60;;;;;;5056911;28;20443;-77
2022/11/05 09:55:38;;;;;;;0.60;0.60;;;11.90;82.70;;;;;;5056675;28;20545;-75
2022/11/05 09:58:14;;;;;;;0.80;0.80;;;11.90;82.50;;;;;;5056994;28;20529;-77
2022/11/05 10:00:41;;;;;;;0.80;0.80;;;12.00;83.00;;;;;;5056091;28;20461;-77
2022/11/05 10:03:13;;;;;;;0.70;0.70;;;12.10;83.10;;;;;;5056264;28;20438;-78
2022/11/05 10:05:40;;;;;;;0.80;0.80;;;12.20;82.80;;;;;;5056149;28;20439;-77
2022/11/05 10:08:18;;;;;;;0.70;0.70;;;12.20;82.60;;;;;;5056209;28;20446;-77
2022/11/05 10:10:49;;;;;;;0.70;0.70;;;12.20;82.70;;;;;;5056195;28;20477;-77
2022/11/05 10:13:24;;;;;;;0.80;0.80;;;12.10;82.00;;;;;;5056012;28;20804;-78
2022/11/05 10:15:59;;;;;;;0.70;0.70;;;12.00;82.30;;;;;;5057321;28;20441;-78
2022/11/05 10:18:30;;;;;;;0.70;0.70;;;12.10;82.60;;;;;;5056257;28;20465;-76
2022/11/05 10:20:57;;;;;;;0.70;0.70;;;12.10;82.20;;;;;;5056012;28;20474;-76
2022/11/05 10:23:26;;;;;;;0.60;0.60;;;12.10;83.30;;;;;;5056425;28;20492;-75
2022/11/05 10:25:57;;;;;;;0.73;0.73;;;12.10;83.20;;;;;;5056406;28;20454;-73
2022/11/05 10:28:25;;;;;;;0.77;0.77;;;12.20;82.50;;;;;;5056044;28;20971;-75
2022/11/05 10:30:56;;;;;;;0.70;0.70;;;12.10;82.00;;;;;;5055863;28;20465;-74
2022/11/05 10:33:30;;;;;;;0.70;0.70;;;12.10;82.30;;;;;;5056344;28;20433;-74
2022/11/05 10:36:03;;;;;;;0.67;0.67;;;12.00;81.90;;;;;;5055902;28;20450;-74
2022/11/05 10:38:30;;;;;;;0.80;0.80;;;11.90;81.80;;;;;;5056138;28;20536;-74
2022/11/05 10:41:09;;;;;;;1.57;0.90;;;11.80;82.60;;;;;;5055753;28;20521;-74
2022/11/05 10:43:42;;;;;;;0.80;0.70;;;11.80;82.60;;;;;;5056160;28;20438;-75
2022/11/05 10:46:27;;;;;;;0.73;0.73;;;11.90;82.70;;;;;;5055823;28;20431;-74
2022/11/05 10:49:06;;;;;;;0.80;0.80;;;11.90;82.60;;;;;;5055897;28;20797;-74
2022/11/05 10:51:33;;;;;;;0.70;0.70;;;12.00;82.30;;;;;;5055780;28;20470;-74
2022/11/05 10:54:04;;;;;;;0.80;0.80;;;12.20;83.00;;;;;;5055915;28;20451;-75
2022/11/05 10:56:35;;;;;;;0.80;0.80;;;12.20;82.20;;;;;;5055373;28;20486;-74
2022/11/05 10:59:04;;;;;;;0.73;0.73;;;12.20;81.30;;;;;;5055202;28;20467;-73
2022/11/05 11:01:32;;;;;;;0.70;0.70;;;12.30;81.70;;;;;;5054884;28;21005;-73
2022/11/05 11:04:13;;;;;;;1.00;0.90;;;12.40;82.20;;;;;;5055186;28;20439;-72
2022/11/05 11:06:48;;;;;;;0.97;0.97;;;12.40;81.40;;;;;;5055127;28;20790;-72
2022/11/05 11:09:21;;;;;;;0.90;0.90;;;12.40;81.50;;;;;;5055064;28;20437;-72
2022/11/05 11:12:05;;;;;;;0.90;0.90;;;12.40;81.50;;;;;;5054662;28;20970;-73
2022/11/05 11:14:33;;;;;;;0.80;0.80;;;12.40;81.20;;;;;;5055002;28;20449;-72
2022/11/05 11:17:23;;;;;;;0.80;0.80;;;12.50;81.00;;;;;;5054947;28;20453;-72
2022/11/05 11:19:50;;;;;;;1.00;0.90;;;12.60;80.90;;;;;;5054927;28;20430;-72
2022/11/05 11:22:20;;;;;;;0.90;0.90;;;12.70;80.80;;;;;;5054764;28;20465;-73
2022/11/05 11:24:49;;;;;;;0.80;0.80;;;12.60;80.10;;;;;;5055146;28;20438;-73
2022/11/05 11:27:21;;;;;;;1.10;0.87;;;12.50;80.20;;;;;;5054233;28;20470;-72
2022/11/05 11:29:51;;;;;;;0.70;0.70;;;12.40;80.60;;;;;;5054309;28;20446;-71
2022/11/05 11:32:21;;;;;;;0.80;0.80;;;12.30;80.70;;;;;;5055244;28;20494;-71
2022/11/05 11:34:51;;;;;;;0.80;0.80;;;12.20;81.20;;;;;;5054675;28;20450;-70
2022/11/05 11:37:23;;;;;;;0.90;0.90;;;12.10;81.50;;;;;;5054788;28;20446;-72
2022/11/05 11:39:52;;;;;;;0.90;0.90;;;12.30;81.40;;;;;;5054916;28;20471;-69
2022/11/05 11:42:38;;;;;;;0.80;0.80;;;12.40;81.20;;;;;;5054745;28;20478;-72
2022/11/05 11:45:14;;;;;;;1.10;1.10;;;12.30;81.30;;;;;;5054751;28;20485;-72
2022/11/05 11:47:44;;;;;;;0.70;0.70;;;12.40;81.10;;;;;;5054734;28;20441;-72
2022/11/05 11:50:34;;;;;;;0.80;0.80;;;12.40;80.70;;;;;;5054498;28;20457;-69
2022/11/05 11:53:16;;;;;;;1.00;0.80;;;12.40;81.10;;;;;;5054385;28;20458;-70
2022/11/05 11:56:00;;;;;;;0.90;0.90;;;12.30;80.70;;;;;;5054327;28;20431;-70
2022/11/05 11:58:44;;;;;;;0.80;0.80;;;12.40;81.00;;;;;;5054453;28;20474;-70
2022/11/05 12:01:52;;;;;;;0.90;0.90;;;12.30;80.70;;;;;;5054574;28;20486;-70
2022/11/05 12:04:37;;;;;;;0.90;0.90;;;12.30;81.60;;;;;;5054391;28;20798;-70
2022/11/05 12:07:20;;;;;;;0.80;0.80;;;12.20;82.00;;;;;;5053899;28;20439;-70
2022/11/05 12:09:59;;;;;;;1.00;1.00;;;12.30;80.40;;;;;;5053912;28;20427;-68
2022/11/05 12:12:34;;;;;;;0.90;0.90;;;12.30;80.20;;;;;;5053869;28;20462;-69
2022/11/05 12:15:18;;;;;;;0.70;0.70;;;12.20;80.00;;;;;;5054175;28;20453;-70
2022/11/05 12:17:51;;;;;;;0.97;0.97;;;12.20;80.00;;;;;;5053493;28;20929;-69
2022/11/05 12:20:31;;;;;;;0.77;0.77;;;12.30;79.70;;;;;;5053847;28;20435;-69
2022/11/05 12:23:22;;;;;;;0.80;0.80;;;12.40;79.90;;;;;;5053411;28;20431;-70
2022/11/05 12:25:56;;;;;;;1.10;1.10;;;12.50;79.20;;;;;;5053723;28;20440;-68
2022/11/05 12:28:50;;;;;;;0.80;0.80;;;12.50;78.80;;;;;;5053355;28;20926;-69
2022/11/05 12:31:26;;;;;;;0.70;0.70;;;12.30;79.50;;;;;;5053310;28;20470;-69
2022/11/05 12:34:02;;;;;;;0.80;0.80;;;12.20;79.00;;;;;;5053560;28;20437;-70
2022/11/05 12:36:48;;;;;;;0.80;0.80;;;12.10;79.50;;;;;;5053619;28;20434;-70
2022/11/05 12:39:42;;;;;;;0.80;0.80;;;12.10;79.60;;;;;;5053017;28;20470;-69
2022/11/05 12:42:23;;;;;;;1.00;1.00;;;12.00;78.90;;;;;;5053407;28;20473;-69
2022/11/05 12:44:59;;;;;;;0.80;0.80;;;11.90;79.30;;;;;;5053154;28;20903;-68
2022/11/05 12:48:01;;;;;;;1.30;1.00;;;12.00;79.40;;;;;;5053448;28;20427;-69
2022/11/05 12:50:35;;;;;;;0.70;0.70;;;12.10;79.90;;;;;;5053290;28;20430;-70
2022/11/05 12:53:31;;;;;;;0.80;0.80;;;12.10;79.40;;;;;;5053189;28;20435;-69
2022/11/05 12:56:01;;;;;;;0.80;0.80;;;12.20;79.50;;;;;;5050569;28;20946;-70
2022/11/05 12:58:32;;;;;;;0.90;0.90;;;12.10;79.10;;;;;;5053214;28;20482;-69
2022/11/05 13:01:02;;;;;;;0.90;0.90;;;12.10;79.50;;;;;;5052959;28;20860;-69
2022/11/05 13:03:39;;;;;;;0.70;0.70;;;12.20;79.10;;;;;;5053248;28;20929;-71
2022/11/05 13:06:11;;;;;;;1.00;0.90;;;12.10;78.70;;;;;;5053294;28;20427;-71
2022/11/05 13:08:42;;;;;;;0.77;0.77;;;12.10;78.60;;;;;;5053404;28;20431;-71
2022/11/05 13:11:19;;;;;;;0.73;0.73;;;12.20;78.80;;;;;;5053147;28;20475;-72
2022/11/05 13:14:00;;;;;;;1.00;1.00;;;12.20;78.70;;;;;;5053278;28;20435;-71
2022/11/05 13:16:30;;;;;;;0.90;0.90;;;12.20;78.80;;;;;;5053178;28;20435;-71
2022/11/05 13:19:03;;;;;;;0.80;0.80;;;12.30;79.20;;;;;;5053047;28;20482;-71
2022/11/05 13:21:30;;;;;;;0.77;0.77;;;12.30;78.80;;;;;;5053332;28;20469;-72
2022/11/05 13:24:03;;;;;;;0.87;0.87;;;12.40;78.40;;;;;;5053071;28;20453;-71
2022/11/05 13:26:35;;;;;;;1.00;1.00;;;12.40;78.10;;;;;;5053492;28;20431;-72
2022/11/05 13:29:06;;;;;;;0.80;0.80;;;12.40;78.50;;;;;;5053107;28;20439;-72
2022/11/05 13:31:38;;;;;;;0.80;0.80;;;12.40;78.30;;;;;;5052953;28;20463;-71
2022/11/05 13:34:10;;;;;;;0.70;0.70;;;12.40;78.60;;;;;;5053117;28;20442;-73
2022/11/05 13:39:41;;;;;;;0.87;0.87;;;12.20;79.00;;;;;;5052975;28;20540;-72
2022/11/05 13:42:45;;;;;;;0.80;0.80;;;12.30;79.70;;;;;;5052856;28;20459;-73
2022/11/05 13:45:34;;;;;;;0.90;0.90;;;12.40;80.30;;;;;;5035051;28;20791;-71
2022/11/05 13:48:30;;;;;;;0.97;0.97;;;12.50;79.60;;;;;;5053059;28;20438;-73
2022/11/05 13:51:20;;;;;;;0.70;0.70;;;12.50;79.60;;;;;;5052973;28;20465;-74
2022/11/05 13:54:11;;;;;;;0.70;0.70;;;12.50;78.60;;;;;;5056620;28;20431;-71
2022/11/05 13:56:53;;;;;;;1.00;1.00;;;12.40;78.00;;;;;;5057063;28;20422;-70
2022/11/05 13:59:49;;;;;;;0.97;0.83;;;12.40;78.10;;;;;;5056391;28;20469;-70
2022/11/05 14:02:20;;;;;;;0.83;0.83;;;12.50;78.30;;;;;;5053798;28;20482;-70
2022/11/05 14:04:49;;;;;;;0.80;0.80;;;12.40;77.30;;;;;;5056322;28;20434;-68
2022/11/05 14:07:20;;;;;;;0.90;0.90;;;12.30;77.20;;;;;;5055895;28;20482;-69
2022/11/05 14:09:53;;;;;;;0.93;0.90;;;12.20;78.10;;;;;;5056328;28;20428;-68
2022/11/05 14:12:23;;;;;;;0.80;0.80;;;12.20;78.40;;;;;;5056149;28;20477;-69
2022/11/05 14:14:54;;;;;;;0.70;0.70;;;12.30;77.50;;;;;;5056190;28;20446;-69
2022/11/05 14:17:30;;;;;;;0.87;0.87;;;12.30;77.50;;;;;;5056173;28;20435;-69
2022/11/05 14:20:22;;;;;;;0.80;0.80;;;12.40;77.80;;;;;;5056267;28;20470;-70
2022/11/05 14:22:50;;;;;;;0.83;0.83;;;12.20;76.30;;;;;;5055941;28;20502;-69
2022/11/05 14:25:54;;;;;;;0.80;0.80;;;12.00;76.70;;;;;;5055536;28;20821;-70
2022/11/05 14:28:45;;;;;;;0.70;0.70;;;12.10;77.60;;;;;;5024441;28;20519;-70
2022/11/05 14:31:30;;;;;;;0.80;0.80;;;12.10;77.80;;;;;;5055469;28;20814;-70
2022/11/05 14:34:16;;;;;;;0.73;0.73;;;12.10;77.20;;;;;;5056057;28;20426;-69
2022/11/05 14:36:44;;;;;;;0.70;0.70;;;12.00;76.90;;;;;;5055509;28;20941;-69
2022/11/05 14:39:31;;;;;;;0.80;0.80;;;12.00;76.90;;;;;;5055335;28;20485;-69
2022/11/05 14:42:04;;;;;;;0.77;0.77;;;12.00;76.80;;;;;;5055361;28;21004;-69
2022/11/05 14:44:34;;;;;;;0.80;0.80;;;12.00;77.20;;;;;;5055636;28;20793;-69
2022/11/05 14:47:04;;;;;;;0.90;0.90;;;12.10;77.50;;;;;;5055550;28;20467;-69
2022/11/05 14:49:35;;;;;;;0.80;0.80;;;12.10;78.00;;;;;;5055847;28;20438;-69
2022/11/05 14:52:07;;;;;;;0.70;0.70;;;12.10;78.40;;;;;;5055331;28;20848;-70
2022/11/05 14:54:41;;;;;;;0.90;0.90;;;12.10;78.20;;;;;;5055730;28;20427;-70
2022/11/05 14:57:12;;;;;;;0.70;0.70;;;12.00;77.70;;;;;;5055521;28;20456;-70
2022/11/05 14:59:55;;;;;;;0.70;0.70;;;12.00;77.50;;;;;;5055306;28;20474;-70
2022/11/05 15:02:26;;;;;;;0.77;0.77;;;12.10;77.40;;;;;;5053532;28;20565;-71
2022/11/05 15:05:23;;;;;;;0.80;0.80;;;12.00;77.00;;;;;;5055247;28;20462;-71
2022/11/05 15:07:56;;;;;;;0.83;0.83;;;12.00;77.30;;;;;;5042613;28;20454;-70
2022/11/05 15:10:29;;;;;;;0.70;0.70;;;12.10;77.60;;;;;;5055153;28;20430;-70
2022/11/05 15:13:03;;;;;;;0.70;0.70;;;12.10;77.20;;;;;;5055174;28;20439;-70
2022/11/05 15:15:38;;;;;;;0.90;0.90;;;12.00;77.30;;;;;;5054791;28;20906;-70
2022/11/05 15:18:16;;;;;;;1.17;1.07;;;12.10;77.20;;;;;;5056124;28;20763;-69
2022/11/05 15:20:44;;;;;;;0.80;0.80;;;12.10;77.60;;;;;;5055440;28;20501;-70
2022/11/05 15:23:14;;;;;;;0.90;0.90;;;12.10;77.50;;;;;;5054997;28;20443;-70
2022/11/05 15:25:49;;;;;;;1.03;0.93;;;12.00;77.50;;;;;;5054622;28;20442;-70
2022/11/05 15:28:26;;;;;;;1.00;1.00;;;12.10;77.80;;;;;;5054909;28;20433;-70
2022/11/05 15:30:58;;;;;;;1.20;1.20;;;12.10;78.20;;;;;;5054678;28;20465;-70
2022/11/05 15:33:25;;;;;;;1.10;1.10;;;12.10;77.70;;;;;;5054680;28;20460;-70
2022/11/05 15:35:52;;;;;;;0.90;0.90;;;12.10;77.50;;;;;;5054666;28;20504;-70
2022/11/05 15:38:30;;;;;;;0.80;0.80;;;12.10;77.50;;;;;;5054513;28;20442;-70
2022/11/05 15:41:00;;;;;;;0.80;0.80;;;12.10;77.70;;;;;;5054440;28;20581;-70
2022/11/05 15:43:27;;;;;;;0.90;0.90;;;12.10;77.80;;;;;;5054206;28;20427;-70
2022/11/05 15:46:06;;;;;;;0.90;0.80;;;12.10;78.00;;;;;;5054436;28;20502;-70
2022/11/05 15:48:34;;;;;;;0.80;0.80;;;12.10;78.00;;;;;;5054641;28;20427;-70
2022/11/05 15:51:00;;;;;;;0.80;0.80;;;12.10;77.50;;;;;;5054242;28;20459;-71
2022/11/05 15:53:34;;;;;;;0.83;0.83;;;12.00;77.80;;;;;;5054312;28;20443;-71
2022/11/05 15:56:09;;;;;;;0.97;0.97;;;11.90;77.50;;;;;;5053961;28;21046;-71
2022/11/05 15:58:42;;;;;;;0.90;0.90;;;11.80;77.90;;;;;;5054246;28;20430;-70
2022/11/05 16:01:23;;;;;;;1.20;1.13;;;11.80;78.30;;;;;;5053815;28;20485;-70
2022/11/05 16:03:51;;;;;;;0.80;0.80;;;11.70;78.70;;;;;;5054177;28;20444;-70
2022/11/05 16:06:18;;;;;;;1.03;0.90;;;11.70;79.20;;;;;;5053985;28;20450;-70
2022/11/05 16:08:49;;;;;;;0.90;0.90;;;11.80;79.40;;;;;;5053954;28;20556;-70
2022/11/05 16:11:25;;;;;;;0.90;0.90;;;11.80;79.60;;;;;;5053858;28;20467;-71
2022/11/05 16:13:53;;;;;;;0.93;0.93;;;11.80;79.70;;;;;;5053465;28;20465;-70
2022/11/05 16:16:30;;;;;;;1.27;1.00;;;11.80;79.50;;;;;;5055499;28;20442;-70
2022/11/05 16:18:56;;;;;;;1.07;1.07;;;11.80;79.80;;;;;;5053742;28;20426;-72
2022/11/05 16:21:23;;;;;;;1.00;1.00;;;11.80;80.20;;;;;;5053622;28;20474;-73
2022/11/05 16:23:55;;;;;;;1.43;1.43;;;11.80;80.30;;;;;;5053817;28;20450;-75
2022/11/05 16:26:30;;;;;;;1.10;1.10;;;11.80;80.40;;;;;;5053808;28;20434;-74
2022/11/05 16:28:57;;;;;;;1.50;1.50;;;11.70;80.00;;;;;;5053739;28;20422;-74
2022/11/05 16:31:26;;;;;;;1.17;1.10;;;11.70;80.10;;;;;;5053255;28;20986;-74
2022/11/05 16:33:54;;;;;;;1.10;1.10;;;11.70;80.30;;;;;;5053564;28;20447;-74
2022/11/05 16:36:21;;;;;;;1.10;1.10;;;11.70;80.40;;;;;;5053513;28;20459;-74
2022/11/05 16:38:48;;;;;;;1.13;1.13;;;11.70;80.10;;;;;;5053417;28;20450;-74
2022/11/05 16:41:15;;;;;;;1.03;1.03;;;11.70;80.10;;;;;;5052976;28;20486;-74
2022/11/05 16:43:51;;;;;;;1.00;1.00;;;11.60;80.10;;;;;;5053144;28;20454;-74
2022/11/05 16:46:18;;;;;;;0.80;0.80;;;11.60;80.10;;;;;;5053444;28;20840;-74
2022/11/05 16:48:45;;;;;;;1.10;1.10;;;11.50;80.00;;;;;;5053073;28;20962;-74
2022/11/05 16:51:12;;;;;;;1.10;1.00;;;11.50;80.10;;;;;;5052993;28;20974;-74
2022/11/05 16:53:39;;;;;;;0.93;0.93;;;11.40;80.40;;;;;;5053261;28;20469;-74
2022/11/05 16:56:12;;;;;;;0.90;0.90;;;11.40;80.40;;;;;;5053280;28;20453;-74
2022/11/05 16:58:39;;;;;;;0.93;0.93;;;11.30;80.50;;;;;;5053276;28;20431;-74
2022/11/05 17:01:11;;;;;;;0.80;0.80;;;11.30;80.40;;;;;;5052909;28;20532;-74
2022/11/05 17:03:37;;;;;;;1.07;1.07;;;11.20;80.20;;;;;;5053228;28;20443;-74
2022/11/05 17:06:05;;;;;;;0.90;0.90;;;11.10;80.40;;;;;;5052910;28;20958;-75
2022/11/05 17:08:31;;;;;;;1.07;1.00;;;11.10;80.40;;;;;;5053500;28;20446;-74
2022/11/05 17:10:58;;;;;;;0.80;0.80;;;11.00;80.40;;;;;;5053108;28;20474;-74
2022/11/05 17:13:25;;;;;;;0.80;0.80;;;11.00;80.60;;;;;;5053135;28;20451;-74
2022/11/05 17:15:51;;;;;;;1.10;1.00;;;10.90;80.60;;;;;;5053048;28;20443;-74
2022/11/05 17:18:20;;;;;;;0.80;0.80;;;10.90;80.60;;;;;;5053128;28;20443;-74
2022/11/05 17:20:48;;;;;;;0.90;0.90;;;10.80;80.40;;;;;;5053197;28;20540;-75
2022/11/05 17:23:18;;;;;;;0.90;0.90;;;10.80;80.30;;;;;;5053083;28;20450;-74
2022/11/05 17:25:47;;;;;;;0.80;0.80;;;10.70;80.60;;;;;;5053286;28;20453;-74
2022/11/05 17:28:15;;;;;;;0.87;0.80;;;10.70;80.50;;;;;;5057014;28;20454;-74
2022/11/05 17:30:41;;;;;;;0.90;0.90;;;10.70;80.40;;;;;;5056937;28;20453;-75